Time;durP1;ratioP1;P1;durP2;ratioP2;P2;SDS_P1;SDS_P2;PMS_P1;PMS_P2;Temp;Humidity;BMP_temperature;BMP_pressure;BME280_temperature;BME280_humidity;BME280_pressure;Samples;Min_cycle;Max_cycle;Signal;HPM_P1;HPM_P2
2021/05/26 15:16:23;;;;;;;2.38;1.15;;;23.80;41.80;;;;;;5130848;27;20118;-78
2021/05/26 15:18:48;;;;;;;1.63;1.52;;;23.70;42.00;;;;;;5112342;28;20066;-78
2021/05/26 15:21:15;;;;;;;3.05;1.40;;;23.80;41.80;;;;;;5095119;28;20034;-79
2021/05/26 15:23:41;;;;;;;2.28;1.35;;;24.00;41.60;;;;;;5130664;28;20530;-78
2021/05/26 15:26:07;;;;;;;3.63;1.13;;;24.20;41.10;;;;;;5112327;28;20122;-77
2021/05/26 15:28:33;;;;;;;1.40;1.23;;;24.30;41.00;;;;;;5130522;28;20035;-79
2021/05/26 15:30:59;;;;;;;2.13;1.20;;;24.60;40.90;;;;;;5131044;28;20031;-81
2021/05/26 15:33:26;;;;;;;2.13;1.10;;;24.60;40.50;;;;;;5130735;28;20043;-79
2021/05/26 15:35:52;;;;;;;3.78;1.20;;;24.80;40.60;;;;;;5130670;28;20046;-80
2021/05/26 15:38:18;;;;;;;2.42;1.15;;;24.90;40.30;;;;;;5130438;28;20043;-78
2021/05/26 15:40:45;;;;;;;1.27;1.17;;;25.00;40.00;;;;;;5112282;28;20038;-80
2021/05/26 15:43:12;;;;;;;3.20;1.20;;;25.10;39.90;;;;;;5130300;28;20035;-81
2021/05/26 15:45:38;;;;;;;2.47;1.20;;;25.10;39.90;;;;;;5130387;28;20035;-78
2021/05/26 15:48:04;;;;;;;1.88;1.50;;;25.00;39.80;;;;;;5111822;28;20031;-81
2021/05/26 15:50:30;;;;;;;3.47;1.20;;;25.00;40.00;;;;;;5129967;28;20451;-77
2021/05/26 15:52:56;;;;;;;3.17;1.30;;;24.90;40.00;;;;;;5129786;28;20055;-77
2021/05/26 15:55:25;;;;;;;4.03;1.63;;;24.90;40.20;;;;;;5111467;28;20039;-77
2021/05/26 15:57:51;;;;;;;1.42;1.10;;;24.90;40.50;;;;;;5130277;28;20123;-78
2021/05/26 16:00:29;;;;;;;2.83;1.40;;;24.90;40.50;;;;;;5111493;28;20084;-77
2021/05/26 16:02:57;;;;;;;3.05;1.05;;;24.90;40.70;;;;;;5111750;28;20443;-74
2021/05/26 16:05:27;;;;;;;2.08;1.35;;;24.80;40.90;;;;;;5111201;28;20031;-78
2021/05/26 16:07:53;;;;;;;5.75;1.80;;;24.90;40.80;;;;;;5130372;28;20043;-79
2021/05/26 16:10:21;;;;;;;4.03;2.03;;;24.90;41.00;;;;;;5129666;28;20415;-81
2021/05/26 16:12:47;;;;;;;5.78;1.60;;;25.00;40.80;;;;;;5130015;28;20047;-80
2021/05/26 16:15:15;;;;;;;2.55;1.58;;;24.90;40.50;;;;;;5129015;28;20400;-78
2021/05/26 16:17:42;;;;;;;5.43;1.40;;;24.90;40.80;;;;;;5111341;28;20126;-77
2021/05/26 16:20:09;;;;;;;7.82;1.65;;;24.80;40.60;;;;;;5111018;28;20099;-78
2021/05/26 16:22:35;;;;;;;1.73;1.27;;;24.80;40.80;;;;;;5129177;28;20144;-78
2021/05/26 16:25:02;;;;;;;8.68;1.60;;;24.70;40.70;;;;;;5129457;28;20526;-79
2021/05/26 16:27:28;;;;;;;4.68;2.17;;;24.60;40.80;;;;;;5117373;28;20031;-73
2021/05/26 16:29:54;;;;;;;7.00;2.08;;;24.70;41.00;;;;;;5115933;28;20177;-73
2021/05/26 16:32:20;;;;;;;5.78;2.05;;;24.60;41.30;;;;;;5097188;28;20530;-73
2021/05/26 16:34:47;;;;;;;5.07;1.90;;;24.60;41.30;;;;;;5097284;28;20034;-73
2021/05/26 16:37:13;;;;;;;1.98;1.70;;;24.60;41.50;;;;;;5115587;28;20380;-77
2021/05/26 16:39:39;;;;;;;4.47;1.80;;;24.60;41.50;;;;;;5097608;28;20030;-76
2021/05/26 16:42:07;;;;;;;3.35;2.05;;;24.60;41.30;;;;;;5097391;28;20042;-74
2021/05/26 16:44:34;;;;;;;3.38;1.98;;;24.60;41.20;;;;;;5115217;28;20043;-75
2021/05/26 16:47:00;;;;;;;3.38;1.70;;;24.60;41.50;;;;;;5097278;28;20031;-74
2021/05/26 16:49:27;;;;;;;8.32;2.00;;;24.60;41.40;;;;;;5115126;28;20035;-79
2021/05/26 16:51:53;;;;;;;9.07;2.13;;;24.60;41.30;;;;;;5097367;28;20051;-76
2021/05/26 16:54:20;;;;;;;4.95;1.83;;;24.50;41.50;;;;;;5096780;28;20092;-72
2021/05/26 16:56:47;;;;;;;2.22;1.88;;;24.40;41.80;;;;;;5115266;28;20066;-73
2021/05/26 16:59:14;;;;;;;5.93;1.80;;;24.40;41.80;;;;;;5115286;28;20035;-74
2021/05/26 17:01:41;;;;;;;3.17;1.85;;;24.40;41.90;;;;;;5096796;28;20039;-74
2021/05/26 17:04:08;;;;;;;4.90;2.05;;;24.40;42.10;;;;;;5115163;28;20033;-79
2021/05/26 17:06:35;;;;;;;2.47;2.25;;;24.40;41.80;;;;;;5115300;28;20027;-77
2021/05/26 17:09:01;;;;;;;3.40;1.92;;;24.30;42.10;;;;;;5115627;28;20048;-80
2021/05/26 17:11:27;;;;;;;4.47;2.40;;;24.30;42.30;;;;;;5096988;28;20067;-73
2021/05/26 17:13:54;;;;;;;7.07;2.80;;;24.20;42.20;;;;;;5114930;28;20027;-71
2021/05/26 17:16:20;;;;;;;8.95;2.17;;;24.20;42.20;;;;;;5096750;28;20056;-74
2021/05/26 17:18:46;;;;;;;4.15;2.10;;;24.20;42.30;;;;;;5096607;28;20120;-72
2021/05/26 17:21:13;;;;;;;4.03;2.30;;;24.10;42.60;;;;;;5096800;28;20084;-73
2021/05/26 17:23:39;;;;;;;3.90;1.88;;;24.00;42.80;;;;;;5096317;28;20040;-72
2021/05/26 17:26:07;;;;;;;3.55;2.08;;;24.00;42.90;;;;;;5114826;28;20156;-74
2021/05/26 17:28:34;;;;;;;2.33;1.98;;;24.00;43.00;;;;;;5096213;28;20023;-70
2021/05/26 17:31:01;;;;;;;4.55;2.15;;;24.10;43.10;;;;;;5114971;28;20035;-74
2021/05/26 17:33:27;;;;;;;4.80;2.20;;;24.10;43.00;;;;;;5116048;28;20043;-77
2021/05/26 17:35:54;;;;;;;4.20;2.38;;;24.20;43.30;;;;;;5113283;28;20047;-79
2021/05/26 17:38:19;;;;;;;4.85;2.03;;;24.20;43.20;;;;;;5113879;28;20470;-73
2021/05/26 17:40:46;;;;;;;3.58;2.20;;;24.20;43.40;;;;;;5114134;28;20123;-73
2021/05/26 17:43:12;;;;;;;3.97;2.30;;;24.20;43.50;;;;;;5079315;28;20051;-75
2021/05/26 17:45:40;;;;;;;5.53;2.72;;;24.10;43.40;;;;;;5113784;28;20047;-75
2021/05/26 17:48:06;;;;;;;3.17;2.15;;;24.10;43.60;;;;;;5095970;28;20051;-77
2021/05/26 17:50:33;;;;;;;6.18;2.38;;;24.10;43.60;;;;;;5079416;28;20082;-77
2021/05/26 17:52:59;;;;;;;5.75;2.30;;;24.10;43.70;;;;;;5095812;28;20063;-75
2021/05/26 17:55:28;;;;;;;7.30;2.47;;;24.10;43.70;;;;;;5078984;28;20074;-75
2021/05/26 17:57:54;;;;;;;9.75;2.88;;;24.20;43.70;;;;;;5114005;28;20143;-78
2021/05/26 18:00:24;;;;;;;7.88;2.85;;;24.20;43.70;;;;;;5095829;28;20115;-81
2021/05/26 18:02:55;;;;;;;4.85;2.47;;;24.20;43.80;;;;;;5114375;28;20096;-78
2021/05/26 18:05:23;;;;;;;7.03;3.30;;;24.10;43.80;;;;;;5113979;28;20043;-73
2021/05/26 18:07:49;;;;;;;14.32;2.92;;;24.20;43.90;;;;;;5095851;28;20040;-78
2021/05/26 18:10:17;;;;;;;3.58;2.60;;;24.20;44.30;;;;;;5078723;28;20032;-74
2021/05/26 18:12:43;;;;;;;6.55;2.70;;;24.10;44.40;;;;;;5078740;28;20043;-76
2021/05/26 18:15:13;;;;;;;6.90;2.60;;;24.10;44.70;;;;;;5078148;28;20403;-75
2021/05/26 18:17:40;;;;;;;4.60;2.63;;;24.20;44.50;;;;;;5113777;28;20028;-75
2021/05/26 18:20:08;;;;;;;8.02;3.42;;;24.20;44.70;;;;;;5113938;28;20059;-73
2021/05/26 18:22:35;;;;;;;5.13;2.55;;;24.10;44.90;;;;;;5095643;28;20026;-73
2021/05/26 18:25:02;;;;;;;4.35;2.70;;;24.10;44.80;;;;;;5113762;28;20047;-74
2021/05/26 18:27:28;;;;;;;6.55;2.50;;;24.10;45.50;;;;;;5113181;28;20196;-74
2021/05/26 18:29:54;;;;;;;8.10;2.92;;;24.00;45.70;;;;;;5113208;28;20118;-75
2021/05/26 18:32:20;;;;;;;10.05;2.95;;;24.00;46.30;;;;;;5113679;28;20027;-73
2021/05/26 18:34:45;;;;;;;8.82;3.72;;;24.00;47.10;;;;;;5095012;28;20038;-74
2021/05/26 18:37:11;;;;;;;8.65;2.92;;;23.90;47.40;;;;;;5113249;28;20035;-76
2021/05/26 18:39:38;;;;;;;4.97;2.60;;;23.80;47.80;;;;;;5112661;28;20183;-72
2021/05/26 18:42:05;;;;;;;8.18;2.60;;;23.80;47.40;;;;;;5077989;28;20491;-79
2021/05/26 18:44:31;;;;;;;6.88;2.70;;;23.60;47.40;;;;;;5112914;28;20403;-78
2021/05/26 18:46:57;;;;;;;6.60;2.40;;;23.60;47.50;;;;;;5094691;28;20051;-75
2021/05/26 18:49:23;;;;;;;10.40;2.58;;;23.60;47.20;;;;;;5112711;28;20036;-77
2021/05/26 18:51:50;;;;;;;3.75;2.42;;;23.70;47.20;;;;;;5094915;28;20467;-76
2021/05/26 18:54:16;;;;;;;5.53;3.15;;;23.60;47.40;;;;;;5095094;28;20039;-76
2021/05/26 18:56:43;;;;;;;5.05;2.28;;;23.50;47.80;;;;;;5113039;28;20450;-78
2021/05/26 18:59:10;;;;;;;4.80;2.03;;;23.60;48.00;;;;;;5113216;28;20514;-76
2021/05/26 19:01:37;;;;;;;5.10;2.00;;;23.60;48.00;;;;;;5095244;28;20438;-77
2021/05/26 19:04:05;;;;;;;5.10;2.60;;;23.60;48.10;;;;;;5095272;28;20399;-78
2021/05/26 19:06:32;;;;;;;4.05;2.45;;;23.60;48.50;;;;;;5112985;28;20031;-75
2021/05/26 19:08:59;;;;;;;3.58;2.00;;;23.60;49.00;;;;;;5094603;28;20120;-73
2021/05/26 19:11:24;;;;;;;10.70;2.00;;;23.60;49.30;;;;;;5077172;28;20024;-73
2021/05/26 19:13:52;;;;;;;4.05;2.30;;;23.60;49.50;;;;;;5094029;28;20031;-75
2021/05/26 19:16:19;;;;;;;4.32;2.13;;;23.60;50.20;;;;;;5094089;28;20474;-73
2021/05/26 19:18:46;;;;;;;3.50;1.90;;;23.50;50.30;;;;;;5094259;28;20059;-72
2021/05/26 19:21:15;;;;;;;5.22;2.33;;;23.50;50.90;;;;;;5112849;28;20027;-75
2021/05/26 19:23:43;;;;;;;9.25;2.88;;;23.50;51.40;;;;;;5077802;28;20035;-76
2021/05/26 19:26:10;;;;;;;3.63;2.45;;;23.40;51.50;;;;;;5077403;28;20051;-77
2021/05/26 19:28:36;;;;;;;3.20;2.40;;;23.40;52.30;;;;;;5112967;28;20533;-74
2021/05/26 19:31:03;;;;;;;6.95;2.97;;;23.30;52.30;;;;;;5112811;28;20067;-75
2021/05/26 19:33:31;;;;;;;6.20;2.78;;;23.30;52.50;;;;;;5077822;28;20054;-72
2021/05/26 19:35:57;;;;;;;6.10;2.65;;;23.30;52.90;;;;;;5094157;28;20036;-73
2021/05/26 19:38:23;;;;;;;4.65;2.55;;;23.20;53.20;;;;;;5094991;28;20373;-81
2021/05/26 19:40:50;;;;;;;6.82;2.35;;;23.20;53.40;;;;;;5094485;28;20126;-77
2021/05/26 19:43:21;;;;;;;5.85;2.42;;;23.10;53.60;;;;;;5112990;28;20036;-79
2021/05/26 19:45:50;;;;;;;7.70;2.40;;;23.10;53.60;;;;;;5112741;28;20035;-79
2021/05/26 19:48:16;;;;;;;3.63;2.22;;;23.10;53.90;;;;;;5112912;28;20100;-81
2021/05/26 19:50:43;;;;;;;4.10;2.65;;;23.10;53.90;;;;;;5077883;28;20031;-79
2021/05/26 19:53:10;;;;;;;4.07;2.28;;;23.00;53.90;;;;;;5112896;28;20123;-78
2021/05/26 19:55:38;;;;;;;3.75;2.70;;;23.00;54.00;;;;;;5112316;28;20134;-78
2021/05/26 19:58:05;;;;;;;5.03;3.00;;;23.00;54.00;;;;;;5112585;28;20031;-79
2021/05/26 20:00:33;;;;;;;7.40;3.40;;;23.00;54.60;;;;;;5112743;28;20044;-80
2021/05/26 20:03:00;;;;;;;3.05;2.05;;;23.00;54.90;;;;;;5097192;28;20039;-75
2021/05/26 20:05:26;;;;;;;4.25;2.35;;;22.90;55.00;;;;;;5115875;28;20027;-71
2021/05/26 20:07:53;;;;;;;6.18;2.67;;;23.00;54.90;;;;;;5097311;28;20119;-71
2021/05/26 20:10:20;;;;;;;6.07;2.80;;;23.00;55.30;;;;;;5115407;28;20023;-73
2021/05/26 20:12:46;;;;;;;6.38;3.05;;;22.90;55.20;;;;;;5097622;28;20513;-71
2021/05/26 20:15:16;;;;;;;4.47;2.90;;;22.90;55.00;;;;;;5079947;28;20124;-71
2021/05/26 20:17:42;;;;;;;5.70;2.78;;;22.90;56.10;;;;;;5116177;28;20406;-72
2021/05/26 20:20:10;;;;;;;7.72;2.53;;;22.80;57.00;;;;;;5097017;28;20019;-73
2021/05/26 20:22:36;;;;;;;3.60;2.67;;;22.80;57.10;;;;;;5097203;28;20041;-74
2021/05/26 20:25:05;;;;;;;5.78;3.28;;;22.80;57.20;;;;;;5115624;28;20039;-74
2021/05/26 20:27:31;;;;;;;5.63;3.10;;;22.80;57.70;;;;;;5115460;28;20024;-72
2021/05/26 20:29:57;;;;;;;4.93;2.50;;;22.80;57.20;;;;;;5115294;28;20453;-72
2021/05/26 20:32:23;;;;;;;6.25;2.90;;;22.70;56.60;;;;;;5114649;28;20040;-74
2021/05/26 20:34:49;;;;;;;4.18;2.78;;;22.70;56.80;;;;;;5097089;28;20399;-72
2021/05/26 20:37:16;;;;;;;4.97;2.90;;;22.60;56.90;;;;;;5115491;28;20045;-72
2021/05/26 20:39:42;;;;;;;5.95;3.00;;;22.60;57.10;;;;;;5097661;28;20062;-71
2021/05/26 20:42:08;;;;;;;7.50;2.50;;;22.60;57.00;;;;;;5116131;28;20054;-71
2021/05/26 20:44:35;;;;;;;4.50;2.47;;;22.50;57.20;;;;;;5115749;28;20062;-72
2021/05/26 20:47:01;;;;;;;4.43;2.78;;;22.50;57.30;;;;;;5115713;28;20039;-74
2021/05/26 20:49:28;;;;;;;6.63;3.40;;;22.50;57.80;;;;;;5097473;28;20063;-73
2021/05/26 20:51:55;;;;;;;4.95;2.80;;;22.50;58.20;;;;;;5115653;28;20043;-73
2021/05/26 20:54:21;;;;;;;5.18;2.30;;;22.50;58.50;;;;;;5097658;28;20028;-72
2021/05/26 20:56:47;;;;;;;3.50;2.30;;;22.50;58.80;;;;;;5115380;28;20036;-72
2021/05/26 20:59:13;;;;;;;4.70;3.17;;;22.50;58.80;;;;;;5115493;28;20130;-73
2021/05/26 21:01:40;;;;;;;5.32;2.97;;;22.60;59.40;;;;;;5115533;28;20114;-73
2021/05/26 21:04:06;;;;;;;3.75;2.85;;;22.50;59.60;;;;;;5115211;28;20043;-73
2021/05/26 21:06:32;;;;;;;2.85;2.58;;;22.50;59.90;;;;;;5096904;28;20050;-74
2021/05/26 21:08:58;;;;;;;3.40;2.80;;;22.50;60.00;;;;;;5080475;28;20039;-72
2021/05/26 21:11:24;;;;;;;7.45;2.90;;;22.50;60.00;;;;;;5115142;28;20028;-71
2021/05/26 21:13:51;;;;;;;7.03;3.00;;;22.50;60.30;;;;;;5114974;28;20036;-71
2021/05/26 21:16:17;;;;;;;3.58;3.00;;;22.50;60.80;;;;;;5096445;28;20052;-72
2021/05/26 21:18:43;;;;;;;3.80;2.88;;;22.50;61.00;;;;;;5114769;28;20118;-72
2021/05/26 21:21:09;;;;;;;3.38;3.08;;;22.50;62.00;;;;;;5114930;28;20106;-72
2021/05/26 21:23:35;;;;;;;5.13;3.08;;;22.40;62.30;;;;;;5096530;28;20130;-73
2021/05/26 21:26:01;;;;;;;7.20;3.10;;;22.40;63.20;;;;;;5114752;28;20468;-71
2021/05/26 21:28:27;;;;;;;8.05;3.35;;;22.30;64.00;;;;;;5079461;28;20110;-71
2021/05/26 21:30:55;;;;;;;4.38;3.20;;;22.20;64.20;;;;;;5114667;28;20376;-71
2021/05/26 21:33:23;;;;;;;3.90;3.00;;;22.20;64.90;;;;;;5114841;28;20364;-71
2021/05/26 21:35:49;;;;;;;5.35;4.05;;;22.10;65.20;;;;;;5096155;28;20510;-74
2021/05/26 21:38:19;;;;;;;5.95;3.72;;;22.10;66.10;;;;;;5114663;28;20050;-73
2021/05/26 21:40:45;;;;;;;4.32;3.45;;;22.00;66.90;;;;;;5114436;28;20093;-72
2021/05/26 21:43:11;;;;;;;5.30;3.88;;;21.90;67.20;;;;;;5114342;28;20074;-72
2021/05/26 21:45:38;;;;;;;4.80;3.50;;;21.80;67.60;;;;;;5114328;28;20067;-72
2021/05/26 21:48:05;;;;;;;5.47;3.65;;;21.80;68.00;;;;;;5114185;28;20092;-75
2021/05/26 21:50:31;;;;;;;6.47;4.07;;;21.70;68.80;;;;;;5114187;28;20042;-76
2021/05/26 21:52:57;;;;;;;4.28;3.13;;;21.70;69.10;;;;;;5096166;28;20145;-75
2021/05/26 21:55:23;;;;;;;3.90;3.45;;;21.60;69.10;;;;;;5114285;28;20447;-72
2021/05/26 21:57:49;;;;;;;4.72;3.80;;;21.60;69.30;;;;;;5114492;28;20031;-73
2021/05/26 22:00:25;;;;;;;4.18;3.55;;;21.60;70.10;;;;;;5114315;28;20031;-73
2021/05/26 22:02:52;;;;;;;8.35;4.30;;;21.50;69.80;;;;;;5114125;28;20047;-71
2021/05/26 22:05:19;;;;;;;6.05;4.10;;;21.50;70.20;;;;;;5095916;28;20031;-72
2021/05/26 22:07:46;;;;;;;5.03;4.35;;;21.50;70.90;;;;;;5114408;28;20135;-71
2021/05/26 22:10:15;;;;;;;5.28;3.78;;;21.50;71.10;;;;;;5096142;28;20051;-73
2021/05/26 22:12:43;;;;;;;4.13;3.78;;;21.40;71.50;;;;;;5095541;28;20039;-73
2021/05/26 22:15:10;;;;;;;4.72;4.15;;;21.40;71.40;;;;;;5078792;28;20063;-71
2021/05/26 22:17:37;;;;;;;5.53;4.55;;;21.30;72.40;;;;;;5095479;28;20032;-75
2021/05/26 22:20:04;;;;;;;5.72;4.45;;;21.30;73.10;;;;;;5113640;28;20035;-76
2021/05/26 22:22:30;;;;;;;4.95;4.05;;;21.20;73.40;;;;;;5078758;28;20074;-76
2021/05/26 22:24:56;;;;;;;5.18;4.65;;;21.10;73.30;;;;;;5113168;28;20032;-75
2021/05/26 22:27:22;;;;;;;7.35;4.75;;;21.10;74.50;;;;;;5113880;28;20027;-75
2021/05/26 22:29:48;;;;;;;8.60;5.45;;;21.10;75.20;;;;;;5113911;28;20035;-75
2021/05/26 22:32:14;;;;;;;13.60;5.05;;;21.10;75.80;;;;;;5095305;28;20081;-76
2021/05/26 22:34:40;;;;;;;8.65;5.15;;;21.00;76.10;;;;;;5113624;28;20024;-75
2021/05/26 22:37:07;;;;;;;6.68;4.85;;;21.00;77.00;;;;;;5095522;28;20043;-77
2021/05/26 22:39:33;;;;;;;7.95;5.32;;;20.90;77.60;;;;;;5113639;28;20039;-75
2021/05/26 22:41:59;;;;;;;9.38;5.40;;;20.80;78.00;;;;;;5113819;28;20076;-75
2021/05/26 22:44:37;;;;;;;8.93;5.38;;;20.80;78.40;;;;;;5095330;28;20435;-76
2021/05/26 22:47:04;;;;;;;7.28;5.50;;;20.70;78.30;;;;;;5095908;28;20035;-76
2021/05/26 22:49:30;;;;;;;7.22;5.10;;;20.70;79.50;;;;;;5113331;28;20039;-75
2021/05/26 22:51:57;;;;;;;10.27;6.05;;;20.60;79.80;;;;;;5095215;28;20094;-77
2021/05/26 22:54:23;;;;;;;8.55;5.38;;;20.60;80.40;;;;;;5095244;28;20032;-75
2021/05/26 22:56:49;;;;;;;7.60;5.18;;;20.50;80.80;;;;;;5113059;28;20534;-76
2021/05/26 22:59:15;;;;;;;10.98;6.30;;;20.50;80.90;;;;;;5113018;28;20035;-75
2021/05/26 23:01:41;;;;;;;8.13;5.78;;;20.40;81.40;;;;;;5113302;28;20129;-75
2021/05/26 23:04:07;;;;;;;8.73;5.80;;;20.40;81.40;;;;;;5113490;28;20069;-75
2021/05/26 23:06:32;;;;;;;10.55;6.35;;;20.40;81.70;;;;;;5113158;28;20031;-76
2021/05/26 23:08:58;;;;;;;7.85;5.95;;;20.30;81.90;;;;;;5113114;28;20057;-75
2021/05/26 23:11:28;;;;;;;12.63;6.25;;;20.30;81.70;;;;;;5113019;28;20039;-77
2021/05/26 23:13:55;;;;;;;8.75;5.80;;;20.20;82.00;;;;;;5113122;28;20061;-75
2021/05/26 23:16:22;;;;;;;7.68;5.78;;;20.30;81.70;;;;;;5113020;28;20070;-73
2021/05/26 23:18:49;;;;;;;7.68;5.45;;;20.20;81.60;;;;;;5094794;28;20118;-77
2021/05/26 23:21:15;;;;;;;9.50;5.75;;;20.20;81.40;;;;;;5078072;28;20054;-77
2021/05/26 23:23:42;;;;;;;7.53;5.15;;;20.20;81.50;;;;;;5113067;28;20081;-75
2021/05/26 23:26:09;;;;;;;7.05;5.80;;;20.10;81.70;;;;;;5112761;28;20031;-75
2021/05/26 23:28:35;;;;;;;7.45;5.90;;;20.10;81.80;;;;;;5113032;28;20038;-74
2021/05/26 23:31:01;;;;;;;11.35;6.35;;;20.10;81.80;;;;;;5113296;28;20381;-76
2021/05/26 23:33:27;;;;;;;7.60;5.53;;;20.10;82.30;;;;;;5113066;28;20031;-74
2021/05/26 23:35:53;;;;;;;11.10;6.43;;;20.00;82.70;;;;;;5094740;28;20080;-75
2021/05/26 23:38:20;;;;;;;10.20;6.13;;;20.00;82.70;;;;;;5116820;28;20499;-74
2021/05/26 23:40:46;;;;;;;8.00;6.18;;;20.00;82.30;;;;;;5098619;28;20072;-75
2021/05/26 23:43:12;;;;;;;8.60;6.13;;;20.00;82.60;;;;;;5117549;28;20136;-76
2021/05/26 23:45:38;;;;;;;10.43;6.95;;;20.00;83.00;;;;;;5118039;28;20032;-76
2021/05/26 23:48:05;;;;;;;11.38;6.75;;;19.90;83.50;;;;;;5099712;28;20047;-76
2021/05/26 23:50:31;;;;;;;12.32;7.43;;;20.00;83.70;;;;;;5118063;28;20132;-77
2021/05/26 23:52:58;;;;;;;13.48;8.10;;;20.00;84.20;;;;;;5117141;28;20033;-77
2021/05/26 23:55:25;;;;;;;12.52;7.20;;;20.00;83.90;;;;;;5116342;28;20031;-76
2021/05/26 23:57:52;;;;;;;11.07;7.10;;;19.90;84.20;;;;;;5098278;28;20475;-76
